Time;durP1;ratioP1;P1;durP2;ratioP2;P2;SDS_P1;SDS_P2;PMS_P1;PMS_P2;Temp;Humidity;BMP_temperature;BMP_pressure;BME280_temperature;BME280_humidity;BME280_pressure;Samples;Min_cycle;Max_cycle;Signal;HPM_P1;HPM_P2
2023/02/16 00:00:55;;;;;;;70.63;22.87;;;;;;;;;;6186286;23;20219;-88
2023/02/16 00:04:01;;;;;;;75.70;22.10;;;;;;;;;;6203151;23;20167;-87
2023/02/16 00:07:08;;;;;;;69.33;23.03;;;;;;;;;;6185975;23;20236;-88
2023/02/16 00:10:14;;;;;;;76.40;22.20;;;;;;;;;;6186221;23;20219;-88
2023/02/16 00:16:47;;;;;;;78.83;23.60;;;;;;;;;;6185998;23;20211;-88
2023/02/16 00:19:52;;;;;;;77.73;23.53;;;;;;;;;;6186478;23;20254;-90
2023/02/16 00:23:00;;;;;;;73.50;23.83;;;;;;;;;;6203301;23;20159;-89
2023/02/16 00:26:05;;;;;;;72.77;22.60;;;;;;;;;;6185326;23;20172;-90
2023/02/16 00:29:14;;;;;;;79.37;23.23;;;;;;;;;;6204075;23;20177;-91
2023/02/16 00:32:20;;;;;;;77.43;24.40;;;;;;;;;;6186370;23;20168;-89
2023/02/16 00:35:27;;;;;;;75.67;23.70;;;;;;;;;;6187583;23;20232;-90
2023/02/16 00:42:12;;;;;;;77.47;22.67;;;;;;;;;;6186603;23;20555;-92
2023/02/16 00:45:19;;;;;;;79.10;25.07;;;;;;;;;;6185991;23;20168;-87
2023/02/16 00:48:25;;;;;;;72.07;23.10;;;;;;;;;;6202883;23;20522;-90
2023/02/16 00:51:32;;;;;;;71.60;24.37;;;;;;;;;;6185773;23;20191;-90
2023/02/16 00:54:37;;;;;;;73.80;22.97;;;;;;;;;;6186228;23;20167;-88
2023/02/16 00:57:46;;;;;;;79.73;23.60;;;;;;;;;;6185327;23;20220;-90
2023/02/16 01:01:07;;;;;;;74.77;24.73;;;;;;;;;;6202674;23;20191;-86
2023/02/16 01:04:19;;;;;;;83.57;24.47;;;;;;;;;;6185526;23;20179;-89
2023/02/16 01:11:08;;;;;;;79.60;24.70;;;;;;;;;;6147682;23;20183;-89
2023/02/16 01:14:16;;;;;;;81.50;24.13;;;;;;;;;;6203096;23;20180;-88
2023/02/16 01:17:22;;;;;;;81.67;25.67;;;;;;;;;;6185055;23;20191;-90
2023/02/16 01:20:30;;;;;;;75.77;23.07;;;;;;;;;;6202974;23;20176;-89
2023/02/16 01:23:36;;;;;;;80.40;25.60;;;;;;;;;;6186116;23;20215;-90
2023/02/16 01:26:42;;;;;;;67.70;22.83;;;;;;;;;;6202171;23;20164;-90
2023/02/16 01:29:50;;;;;;;77.60;23.13;;;;;;;;;;6185884;23;20184;-90
2023/02/16 01:32:55;;;;;;;75.30;23.03;;;;;;;;;;6185680;23;20175;-89
2023/02/16 01:36:00;;;;;;;72.37;23.03;;;;;;;;;;6186429;23;20195;-90
2023/02/16 01:39:07;;;;;;;77.67;22.77;;;;;;;;;;6186652;23;20176;-89
2023/02/16 01:42:21;;;;;;;76.30;22.93;;;;;;;;;;6187912;23;20191;-89
2023/02/16 01:45:31;;;;;;;82.43;23.50;;;;;;;;;;6203979;23;20168;-89
2023/02/16 01:48:36;;;;;;;72.27;23.13;;;;;;;;;;6188095;23;20172;-90
2023/02/16 01:51:49;;;;;;;82.23;23.93;;;;;;;;;;6205195;23;20168;-89
2023/02/16 01:54:57;;;;;;;83.37;24.93;;;;;;;;;;6188203;23;20168;-88
2023/02/16 01:58:06;;;;;;;79.97;23.93;;;;;;;;;;6187744;23;20168;-89
2023/02/16 02:01:33;;;;;;;80.37;23.93;;;;;;;;;;6186685;23;20213;-89
2023/02/16 02:08:13;;;;;;;89.03;26.10;;;;;;;;;;6187244;23;20164;-89
2023/02/16 02:11:23;;;;;;;89.03;25.37;;;;;;;;;;6204070;23;20148;-90
2023/02/16 02:14:36;;;;;;;77.60;22.77;;;;;;;;;;6188613;23;20172;-89
2023/02/16 02:17:44;;;;;;;87.00;24.37;;;;;;;;;;6205092;23;20248;-90
2023/02/16 02:24:49;;;;;;;135.47;41.80;;;;;;;;;;6187506;23;20174;-88
2023/02/16 02:28:02;;;;;;;124.90;43.50;;;;;;;;;;6181992;23;20172;-90
2023/02/16 02:31:11;;;;;;;85.73;28.63;;;;;;;;;;6179907;23;20167;-90
2023/02/16 02:34:21;;;;;;;86.80;26.53;;;;;;;;;;6180203;23;20175;-87
2023/02/16 02:37:29;;;;;;;76.30;23.03;;;;;;;;;;6178458;23;20693;-89
2023/02/16 02:40:41;;;;;;;81.07;23.27;;;;;;;;;;6181092;23;20218;-90
2023/02/16 02:43:51;;;;;;;65.63;22.90;;;;;;;;;;6181106;23;20172;-91
2023/02/16 02:46:57;;;;;;;67.30;21.60;;;;;;;;;;6179767;23;20608;-87
2023/02/16 02:50:03;;;;;;;74.00;22.33;;;;;;;;;;6198361;23;20176;-88
2023/02/16 02:53:10;;;;;;;69.03;21.70;;;;;;;;;;6181994;23;20171;-90
2023/02/16 03:03:07;;;;;;;74.37;21.47;;;;;;;;;;6180706;23;20217;-89
2023/02/16 03:06:15;;;;;;;66.20;21.10;;;;;;;;;;6180059;23;20168;-89
2023/02/16 03:09:21;;;;;;;69.13;22.27;;;;;;;;;;6180932;23;20191;-91
2023/02/16 03:12:44;;;;;;;73.07;23.07;;;;;;;;;;6180641;23;20172;-90
2023/02/16 03:15:54;;;;;;;67.43;20.07;;;;;;;;;;6180679;23;20212;-88
2023/02/16 03:29:17;;;;;;;69.30;22.63;;;;;;;;;;6180344;23;20208;-89
2023/02/16 03:32:23;;;;;;;72.97;22.20;;;;;;;;;;6178742;23;20176;-89
2023/02/16 03:35:29;;;;;;;73.50;22.87;;;;;;;;;;6180941;23;20218;-92
2023/02/16 03:38:34;;;;;;;64.63;22.20;;;;;;;;;;6179099;23;20179;-90
2023/02/16 03:41:41;;;;;;;65.70;22.57;;;;;;;;;;6196430;23;20168;-89
2023/02/16 03:44:45;;;;;;;62.27;21.87;;;;;;;;;;6179037;23;20168;-88
2023/02/16 03:47:52;;;;;;;75.40;22.30;;;;;;;;;;6177713;23;20171;-90
2023/02/16 03:50:57;;;;;;;74.40;22.77;;;;;;;;;;6179247;23;20171;-90
2023/02/16 03:54:02;;;;;;;80.53;22.50;;;;;;;;;;6196728;23;20627;-90
2023/02/16 03:57:07;;;;;;;67.07;22.63;;;;;;;;;;6177144;23;20207;-89
2023/02/16 04:00:17;;;;;;;65.30;21.43;;;;;;;;;;6177522;23;20167;-91
2023/02/16 04:03:24;;;;;;;68.47;22.00;;;;;;;;;;6177236;23;20533;-89
2023/02/16 04:06:29;;;;;;;69.17;23.03;;;;;;;;;;6178123;23;20234;-88
2023/02/16 04:09:34;;;;;;;68.47;21.90;;;;;;;;;;6178326;23;20164;-89
2023/02/16 04:12:40;;;;;;;71.53;21.63;;;;;;;;;;6197621;23;20217;-90
2023/02/16 04:15:45;;;;;;;73.43;21.00;;;;;;;;;;6179247;23;20172;-90
2023/02/16 04:18:51;;;;;;;83.70;23.53;;;;;;;;;;6176142;23;20191;-88
2023/02/16 04:21:57;;;;;;;87.40;21.23;;;;;;;;;;6177477;23;20175;-89
2023/02/16 04:25:02;;;;;;;74.80;22.33;;;;;;;;;;6179389;23;20176;-90
2023/02/16 04:28:07;;;;;;;76.40;22.57;;;;;;;;;;6178355;23;20171;-91
2023/02/16 04:31:12;;;;;;;69.93;23.23;;;;;;;;;;6178903;23;20256;-92
2023/02/16 04:34:18;;;;;;;78.63;23.40;;;;;;;;;;6178519;23;20244;-92
2023/02/16 04:37:23;;;;;;;89.77;22.60;;;;;;;;;;6179062;23;20178;-91
2023/02/16 04:40:29;;;;;;;71.50;21.97;;;;;;;;;;6180380;23;20676;-91
2023/02/16 04:43:34;;;;;;;72.13;21.67;;;;;;;;;;6197293;23;20163;-90
2023/02/16 04:46:43;;;;;;;76.00;21.83;;;;;;;;;;6179191;23;20219;-91
2023/02/16 04:49:49;;;;;;;92.50;23.57;;;;;;;;;;6197687;23;20163;-91
2023/02/16 04:52:54;;;;;;;75.97;21.13;;;;;;;;;;6179784;23;20172;-90
2023/02/16 04:55:59;;;;;;;77.93;22.77;;;;;;;;;;6178985;23;20710;-91
2023/02/16 04:59:04;;;;;;;93.37;23.60;;;;;;;;;;6178626;23;20163;-93
2023/02/16 05:02:17;;;;;;;86.07;21.67;;;;;;;;;;6192627;23;20176;-91
2023/02/16 05:05:24;;;;;;;85.93;23.03;;;;;;;;;;6179389;23;20223;-91
2023/02/16 05:08:29;;;;;;;78.83;22.63;;;;;;;;;;6195131;23;20291;-92
2023/02/16 05:14:57;;;;;;;84.20;21.97;;;;;;;;;;6179632;23;20200;-89
2023/02/16 05:18:02;;;;;;;76.07;23.07;;;;;;;;;;6181965;23;20187;-90
2023/02/16 05:24:34;;;;;;;71.50;21.60;;;;;;;;;;6182019;23;20175;-90
2023/02/16 05:27:39;;;;;;;78.53;23.27;;;;;;;;;;6199152;23;20164;-90
2023/02/16 05:30:44;;;;;;;84.30;22.27;;;;;;;;;;6180522;23;20228;-88
2023/02/16 05:33:50;;;;;;;71.47;22.37;;;;;;;;;;6198232;23;20163;-89
2023/02/16 05:36:58;;;;;;;86.13;26.40;;;;;;;;;;6179992;23;20231;-88
2023/02/16 05:40:04;;;;;;;80.77;23.13;;;;;;;;;;6198717;23;20705;-88
2023/02/16 05:43:18;;;;;;;94.60;25.10;;;;;;;;;;6184634;23;20148;-90
2023/02/16 05:46:24;;;;;;;82.20;24.80;;;;;;;;;;6181939;23;20207;-90
2023/02/16 05:49:30;;;;;;;78.67;23.10;;;;;;;;;;6200934;23;20192;-89
2023/02/16 05:52:37;;;;;;;76.70;22.00;;;;;;;;;;6184543;23;20180;-90
2023/02/16 05:55:44;;;;;;;79.77;24.47;;;;;;;;;;6207777;23;20205;-91
2023/02/16 05:58:50;;;;;;;75.93;23.13;;;;;;;;;;6188611;23;20180;-91
2023/02/16 06:01:56;;;;;;;79.47;23.77;;;;;;;;;;6187204;23;20188;-91
2023/02/16 06:05:01;;;;;;;84.27;24.50;;;;;;;;;;6189321;23;20172;-90
2023/02/16 06:08:11;;;;;;;68.60;22.80;;;;;;;;;;6206686;23;20494;-87
2023/02/16 06:14:40;;;;;;;77.63;21.67;;;;;;;;;;6189593;23;20213;-88
2023/02/16 06:17:47;;;;;;;71.73;21.43;;;;;;;;;;6188392;23;20215;-91
2023/02/16 06:25:21;;;;;;;76.83;23.10;;;;;;;;;;6208390;23;20160;-90
2023/02/16 06:28:27;;;;;;;83.13;23.83;;;;;;;;;;6188254;23;20176;-90
2023/02/16 06:31:33;;;;;;;91.43;23.17;;;;;;;;;;6189372;23;20176;-89
2023/02/16 06:34:39;;;;;;;84.67;22.60;;;;;;;;;;6190050;23;20152;-91
2023/02/16 20:45:20;;;;;;;69.93;25.10;;;;;;;;;;6158622;23;20192;-93
2023/02/16 20:48:26;;;;;;;64.33;25.67;;;;;;;;;;6188300;23;20176;-91
2023/02/16 20:54:55;;;;;;;61.87;24.73;;;;;;;;;;6183694;23;20196;-91
2023/02/16 20:58:02;;;;;;;61.13;24.23;;;;;;;;;;6185427;23;20195;-87
2023/02/16 21:01:13;;;;;;;60.80;25.00;;;;;;;;;;6202394;23;20180;-91
2023/02/16 21:04:19;;;;;;;70.97;26.23;;;;;;;;;;6186612;23;20187;-90
2023/02/16 21:07:25;;;;;;;76.87;27.97;;;;;;;;;;6184316;23;20168;-87
2023/02/16 21:10:31;;;;;;;74.43;25.47;;;;;;;;;;6185758;23;20631;-90
2023/02/16 21:13:43;;;;;;;62.43;25.03;;;;;;;;;;6184380;23;20627;-89
2023/02/16 21:16:52;;;;;;;62.57;25.00;;;;;;;;;;6184883;23;20172;-90
2023/02/16 21:23:48;;;;;;;63.00;24.80;;;;;;;;;;6185861;23;20219;-90
2023/02/16 21:26:54;;;;;;;65.27;24.93;;;;;;;;;;6203473;23;20164;-90
2023/02/16 21:30:00;;;;;;;62.73;25.60;;;;;;;;;;6186345;23;20228;-88
2023/02/16 21:33:09;;;;;;;62.80;25.67;;;;;;;;;;6184100;23;20156;-90
2023/02/16 21:36:16;;;;;;;65.77;24.73;;;;;;;;;;6184023;23;20251;-91
2023/02/16 21:41:23;;;;;;;60.17;25.43;;;;;;;;;;6183462;23;20175;-90
2023/02/16 21:42:49;;;;;;;58.07;25.17;;;;;;;;;;6187725;23;20254;-88
2023/02/16 21:45:59;;;;;;;57.37;24.77;;;;;;;;;;6186139;23;20211;-91
2023/02/16 21:49:06;;;;;;;57.97;25.30;;;;;;;;;;6186873;23;20172;-91
2023/02/16 21:52:13;;;;;;;55.87;23.10;;;;;;;;;;6185172;23;20191;-90
2023/02/16 21:58:44;;;;;;;53.23;23.53;;;;;;;;;;6185031;23;20255;-92
2023/02/16 22:02:18;;;;;;;57.20;24.40;;;;;;;;;;6184600;23;20171;-88
2023/02/16 22:05:26;;;;;;;62.27;23.37;;;;;;;;;;6184255;23;20175;-92
2023/02/16 22:08:32;;;;;;;58.40;23.43;;;;;;;;;;6202485;23;20188;-91
2023/02/16 22:11:37;;;;;;;48.40;21.53;;;;;;;;;;6184811;23;20521;-89
2023/02/16 22:14:42;;;;;;;56.47;24.97;;;;;;;;;;6203182;23;20184;-91
2023/02/16 22:17:49;;;;;;;52.77;22.00;;;;;;;;;;6185328;23;20179;-91
2023/02/16 22:20:55;;;;;;;55.00;23.67;;;;;;;;;;6185292;23;20172;-91
2023/02/16 22:24:01;;;;;;;48.13;20.93;;;;;;;;;;6184134;23;20227;-90
2023/02/16 22:27:07;;;;;;;63.57;25.57;;;;;;;;;;6200934;23;20223;-91
2023/02/16 22:30:13;;;;;;;53.17;23.07;;;;;;;;;;6184999;23;20168;-89
2023/02/16 22:33:18;;;;;;;54.93;23.30;;;;;;;;;;6203190;23;20176;-89
2023/02/16 22:36:25;;;;;;;52.70;23.00;;;;;;;;;;6186774;23;20215;-91
2023/02/16 22:39:31;;;;;;;54.67;23.00;;;;;;;;;;6183510;23;20654;-90
2023/02/16 22:42:38;;;;;;;52.40;22.27;;;;;;;;;;6186929;23;20176;-90
2023/02/16 22:45:45;;;;;;;52.77;22.43;;;;;;;;;;6189310;23;20239;-90
2023/02/16 22:48:50;;;;;;;54.87;23.33;;;;;;;;;;6187256;23;20147;-89
2023/02/16 22:51:57;;;;;;;53.50;22.33;;;;;;;;;;6203361;23;20176;-89
2023/02/16 22:55:03;;;;;;;57.77;23.00;;;;;;;;;;6183889;23;20188;-90
2023/02/16 22:58:08;;;;;;;50.20;21.93;;;;;;;;;;6201682;23;20211;-89
2023/02/16 23:01:20;;;;;;;48.33;21.27;;;;;;;;;;6185424;23;20179;-90
2023/02/16 23:04:25;;;;;;;50.60;21.40;;;;;;;;;;6185533;23;20171;-89
2023/02/16 23:07:34;;;;;;;49.70;21.50;;;;;;;;;;6185490;23;20251;-91
2023/02/16 23:10:58;;;;;;;56.30;22.17;;;;;;;;;;6184587;23;20503;-92
2023/02/16 23:14:05;;;;;;;49.20;21.43;;;;;;;;;;6187200;23;20599;-90
2023/02/16 23:17:10;;;;;;;51.93;23.17;;;;;;;;;;6205935;23;20212;-90
2023/02/16 23:20:19;;;;;;;51.13;22.50;;;;;;;;;;6187378;23;20176;-92
2023/02/16 23:23:42;;;;;;;51.67;23.13;;;;;;;;;;6204118;23;20212;-91
2023/02/16 23:26:50;;;;;;;49.60;22.07;;;;;;;;;;6191164;23;20176;-91
2023/02/16 23:29:55;;;;;;;53.73;22.77;;;;;;;;;;6204881;23;20160;-91
2023/02/16 23:33:01;;;;;;;51.80;21.87;;;;;;;;;;6188608;23;20213;-90
2023/02/16 23:36:07;;;;;;;53.50;22.73;;;;;;;;;;6202695;23;20168;-90
2023/02/16 23:39:14;;;;;;;59.37;22.90;;;;;;;;;;6182836;23;20249;-91
2023/02/16 23:42:21;;;;;;;51.73;21.40;;;;;;;;;;6183333;23;20175;-89
2023/02/16 23:45:26;;;;;;;50.87;21.47;;;;;;;;;;6183343;23;20211;-90
2023/02/16 23:48:32;;;;;;;49.57;20.80;;;;;;;;;;6202338;23;20156;-89
2023/02/16 23:51:37;;;;;;;50.40;21.73;;;;;;;;;;6183050;23;20210;-91
2023/02/16 23:54:42;;;;;;;51.73;20.87;;;;;;;;;;6201117;23;20698;-91
2023/02/16 23:57:48;;;;;;;50.63;22.57;;;;;;;;;;6182143;23;20196;-87
